createdAt,value
2017-10-05T00:00:46.654Z,979.3
2017-10-05T00:01:48.688Z,979.3
2017-10-05T00:02:50.698Z,979.4
2017-10-05T00:03:52.766Z,979.4
2017-10-05T00:04:54.806Z,979.3
2017-10-05T00:05:57.188Z,979.3
2017-10-05T00:06:59.283Z,979.3
2017-10-05T00:08:01.471Z,979.4
2017-10-05T00:09:03.542Z,979.2
2017-10-05T00:10:05.599Z,979.3
2017-10-05T00:11:08.002Z,979.3
2017-10-05T00:12:10.090Z,979.2
2017-10-05T00:13:12.129Z,979.2
2017-10-05T00:14:14.257Z,979.1
2017-10-05T00:15:16.353Z,979.1
2017-10-05T00:16:18.826Z,979.1
2017-10-05T00:17:20.924Z,979.1
2017-10-05T00:18:23.065Z,979.1
2017-10-05T00:19:25.084Z,979
2017-10-05T00:20:27.225Z,979
2017-10-05T00:21:29.701Z,979
2017-10-05T00:22:31.755Z,979
2017-10-05T00:23:33.880Z,978.9
2017-10-05T00:24:35.949Z,978.8
2017-10-05T00:25:38.014Z,978.8
2017-10-05T00:26:40.354Z,978.6
2017-10-05T00:27:42.388Z,978.7
2017-10-05T00:28:44.481Z,978.7
2017-10-05T00:29:46.564Z,978.6
2017-10-05T00:30:48.654Z,978.7
2017-10-05T00:31:51.041Z,978.5
2017-10-05T00:32:53.063Z,978.5
2017-10-05T00:33:55.119Z,978.5
2017-10-05T00:34:57.180Z,978.5
2017-10-05T00:35:59.269Z,978.7
2017-10-05T00:37:01.601Z,978.7
2017-10-05T00:38:03.729Z,978.6
2017-10-05T00:39:05.775Z,978.6
2017-10-05T00:40:07.868Z,978.5
2017-10-05T00:41:09.972Z,978.5
2017-10-05T00:42:12.416Z,978.4
2017-10-05T00:43:14.474Z,978.4
2017-10-05T00:44:16.535Z,978.4
2017-10-05T00:45:18.648Z,978.4
2017-10-05T00:46:20.741Z,978.4
2017-10-05T00:47:23.112Z,978.4
2017-10-05T00:48:25.294Z,978.3
2017-10-05T00:49:27.405Z,978.3
2017-10-05T00:50:29.469Z,978.2
2017-10-05T00:51:31.706Z,978.2
2017-10-05T00:52:34.162Z,978.2
2017-10-05T00:53:36.267Z,978.3
2017-10-05T00:54:38.309Z,978.3
2017-10-05T00:55:40.358Z,978.2
2017-10-05T00:56:42.404Z,978.2
2017-10-05T00:57:44.817Z,978.2
2017-10-05T00:58:46.910Z,978.1
2017-10-05T00:59:48.939Z,978
2017-10-05T01:00:51.028Z,978
2017-10-05T01:01:53.109Z,977.9
2017-10-05T01:02:55.471Z,978
2017-10-05T01:03:57.597Z,977.9
2017-10-05T01:04:59.713Z,977.9
2017-10-05T01:06:01.783Z,977.9
2017-10-05T01:07:03.904Z,978
2017-10-05T01:08:06.268Z,977.9
2017-10-05T01:09:08.291Z,978
2017-10-05T01:10:10.345Z,978
2017-10-05T01:11:12.438Z,978
2017-10-05T01:12:14.479Z,978
2017-10-05T01:13:16.969Z,978.1
2017-10-05T01:14:19.080Z,978.1
2017-10-05T01:15:21.136Z,978.1
2017-10-05T01:16:23.579Z,978
2017-10-05T01:17:25.692Z,978
2017-10-05T01:18:28.099Z,977.8
2017-10-05T01:19:30.156Z,977.8
2017-10-05T01:20:32.284Z,977.7
2017-10-05T01:21:34.344Z,977.7
2017-10-05T01:22:36.415Z,977.7
2017-10-05T01:23:38.812Z,977.7
2017-10-05T01:24:40.892Z,977.6
2017-10-05T01:25:42.986Z,977.6
2017-10-05T01:26:45.093Z,977.5
2017-10-05T01:27:47.153Z,977.5
2017-10-05T01:28:49.611Z,977.4
2017-10-05T01:29:51.692Z,977.5
2017-10-05T01:30:53.814Z,977.5
2017-10-05T01:31:55.912Z,977.4
2017-10-05T01:32:57.974Z,977.5
2017-10-05T01:34:00.418Z,977.5
2017-10-05T01:35:02.497Z,977.5
2017-10-05T01:36:04.605Z,977.5
2017-10-05T01:37:06.667Z,977.5
2017-10-05T01:38:08.717Z,977.4
2017-10-05T01:39:11.078Z,977.3
2017-10-05T01:40:13.140Z,977.4
2017-10-05T01:41:15.227Z,977.3
2017-10-05T01:42:17.323Z,977.4
2017-10-05T01:43:19.410Z,977.3
2017-10-05T01:44:21.854Z,977.3
2017-10-05T01:45:23.893Z,977.3
2017-10-05T01:46:26.003Z,977.3
2017-10-05T01:47:28.065Z,977.2
2017-10-05T01:48:30.115Z,977.2
2017-10-05T01:49:32.552Z,977.2
2017-10-05T01:50:34.559Z,977.2
2017-10-05T01:51:36.649Z,977.2
2017-10-05T01:52:38.736Z,977.2
2017-10-05T01:53:40.842Z,977.1
2017-10-05T01:54:43.164Z,977
2017-10-05T01:55:45.259Z,977
2017-10-05T01:56:47.477Z,977
2017-10-05T01:57:49.568Z,977
2017-10-05T01:58:51.648Z,977
2017-10-05T01:59:54.038Z,977
2017-10-05T02:00:56.058Z,977
2017-10-05T02:01:58.104Z,976.9
2017-10-05T02:03:00.151Z,977
2017-10-05T02:04:02.206Z,977
2017-10-05T02:05:04.540Z,977
2017-10-05T02:06:06.680Z,976.9
2017-10-05T02:07:08.757Z,976.9
2017-10-05T02:08:10.875Z,976.8
2017-10-05T02:09:12.963Z,976.8
2017-10-05T02:10:15.363Z,976.7
2017-10-05T02:11:17.466Z,976.8
2017-10-05T02:12:19.484Z,976.8
2017-10-05T02:13:21.589Z,976.8
2017-10-05T02:14:23.752Z,976.8
2017-10-05T02:15:26.098Z,976.7
2017-10-05T02:16:28.305Z,976.7
2017-10-05T02:17:30.434Z,976.8
2017-10-05T02:18:32.506Z,976.8
2017-10-05T02:19:34.554Z,976.8
2017-10-05T02:20:37.135Z,976.9
2017-10-05T02:21:39.146Z,976.9
2017-10-05T02:22:41.214Z,976.9
2017-10-05T02:23:43.278Z,977
2017-10-05T02:24:45.356Z,976.9
2017-10-05T02:25:47.783Z,977
2017-10-05T02:26:49.860Z,976.9
2017-10-05T02:27:51.978Z,976.8
2017-10-05T02:28:54.013Z,976.7
2017-10-05T02:29:56.080Z,976.6
2017-10-05T02:30:58.608Z,976.6
2017-10-05T02:32:00.760Z,976.5
2017-10-05T02:33:02.991Z,976.5
2017-10-05T02:34:05.069Z,976.5
2017-10-05T02:35:07.258Z,976.3
2017-10-05T02:36:09.760Z,976.3
2017-10-05T02:37:11.876Z,976.3
2017-10-05T02:38:14.016Z,976.2
2017-10-05T02:39:16.102Z,976.1
2017-10-05T02:40:18.260Z,976.1
2017-10-05T02:41:20.675Z,976.1
2017-10-05T02:42:22.773Z,976
2017-10-05T02:43:24.910Z,976.1
2017-10-05T02:44:27.023Z,976.1
2017-10-05T02:45:29.103Z,976.1
2017-10-05T02:46:31.592Z,976.1
2017-10-05T02:47:33.710Z,976.1
2017-10-05T02:48:35.803Z,976.1
2017-10-05T02:49:37.903Z,975.9
2017-10-05T02:50:40.033Z,976
2017-10-05T02:51:42.565Z,975.9
2017-10-05T02:52:44.678Z,976
2017-10-05T02:53:47.025Z,976
2017-10-05T02:54:49.083Z,976
2017-10-05T02:55:51.231Z,976
2017-10-05T02:56:53.612Z,975.9
2017-10-05T02:57:55.755Z,976
2017-10-05T02:58:58.001Z,975.9
2017-10-05T03:00:00.116Z,975.9
2017-10-05T03:01:02.192Z,975.8
2017-10-05T03:02:04.645Z,975.8
2017-10-05T03:03:06.828Z,975.8
2017-10-05T03:04:08.961Z,975.7
2017-10-05T03:05:11.113Z,975.7
2017-10-05T03:06:13.279Z,975.7
2017-10-05T03:07:15.706Z,975.6
2017-10-05T03:08:17.754Z,975.7
2017-10-05T03:09:19.868Z,975.5
2017-10-05T03:10:21.937Z,975.5
2017-10-05T03:11:24.041Z,975.4
2017-10-05T03:12:26.458Z,975.4
2017-10-05T03:13:28.551Z,975.3
2017-10-05T03:14:30.754Z,975.2
2017-10-05T03:15:32.859Z,975.2
2017-10-05T03:16:34.946Z,975.2
2017-10-05T03:17:37.479Z,975.2
2017-10-05T03:18:39.576Z,975.2
2017-10-05T03:19:41.823Z,975.2
2017-10-05T03:20:43.913Z,975.3
2017-10-05T03:21:46.056Z,975.3
2017-10-05T03:22:48.409Z,975.2
2017-10-05T03:23:50.499Z,975.2
2017-10-05T03:24:52.560Z,975.2
2017-10-05T03:25:54.673Z,975.2
2017-10-05T03:26:56.750Z,975.2
2017-10-05T03:27:59.168Z,975.2
2017-10-05T03:29:01.299Z,975.1
2017-10-05T03:30:03.396Z,975.2
2017-10-05T03:31:05.489Z,975.1
2017-10-05T03:32:07.567Z,975
2017-10-05T03:33:09.936Z,975
2017-10-05T03:34:12.016Z,975
2017-10-05T03:35:14.147Z,974.9
2017-10-05T03:36:16.298Z,974.9
2017-10-05T03:37:18.424Z,974.9
2017-10-05T03:38:20.793Z,974.9
2017-10-05T03:39:22.927Z,974.8
2017-10-05T03:40:25.087Z,974.7
2017-10-05T03:41:27.259Z,974.8
2017-10-05T03:42:30.052Z,974.7
2017-10-05T03:43:32.543Z,974.7
2017-10-05T03:44:34.667Z,974.7
2017-10-05T03:45:36.748Z,974.7
2017-10-05T03:46:38.963Z,974.7
2017-10-05T03:47:41.081Z,974.7
2017-10-05T03:48:43.558Z,974.8
2017-10-05T03:49:45.627Z,974.7
2017-10-05T03:50:47.721Z,974.7
2017-10-05T03:51:49.815Z,974.6
2017-10-05T03:52:51.906Z,974.7
2017-10-05T03:53:54.301Z,974.7
2017-10-05T03:54:56.394Z,974.6
2017-10-05T03:55:58.480Z,974.6
2017-10-05T03:57:01.540Z,974.5
2017-10-05T03:58:03.615Z,974.5
2017-10-05T03:59:06.024Z,974.5
2017-10-05T04:00:08.189Z,974.5
2017-10-05T04:01:10.253Z,974.5
2017-10-05T04:02:12.381Z,974.3
2017-10-05T04:03:14.480Z,974.4
2017-10-05T04:04:16.847Z,974.4
2017-10-05T04:05:19.972Z,974.4
2017-10-05T04:06:22.089Z,974.4
2017-10-05T04:07:24.183Z,974.4
2017-10-05T04:08:26.294Z,974.4
2017-10-05T04:09:28.686Z,974.3
2017-10-05T04:10:30.709Z,974.3
2017-10-05T04:11:33.028Z,974.3
2017-10-05T04:12:35.138Z,974.3
2017-10-05T04:13:37.262Z,974.3
2017-10-05T04:14:39.700Z,974.2
2017-10-05T04:15:41.831Z,974.3
2017-10-05T04:16:43.970Z,974.3
2017-10-05T04:17:46.064Z,974.2
2017-10-05T04:18:48.238Z,974.2
2017-10-05T04:19:50.577Z,974.2
2017-10-05T04:20:52.701Z,974.1
2017-10-05T04:21:54.873Z,974.1
2017-10-05T04:22:56.929Z,974.1
2017-10-05T04:23:59.086Z,974
2017-10-05T04:25:01.562Z,974
2017-10-05T04:26:03.658Z,974
2017-10-05T04:27:05.767Z,974
2017-10-05T04:28:07.868Z,973.9
2017-10-05T04:29:10.052Z,973.9
2017-10-05T04:30:12.606Z,973.9
2017-10-05T04:31:14.688Z,973.8
2017-10-05T04:32:16.768Z,973.8
2017-10-05T04:33:18.870Z,973.8
2017-10-05T04:34:21.664Z,973.8
2017-10-05T04:35:24.034Z,973.7
2017-10-05T04:36:26.110Z,973.6
2017-10-05T04:37:28.154Z,973.7
2017-10-05T04:38:30.479Z,973.7
2017-10-05T04:39:32.534Z,973.7
2017-10-05T04:40:35.024Z,973.6
2017-10-05T04:41:37.113Z,973.6
2017-10-05T04:42:39.192Z,973.6
2017-10-05T04:43:41.315Z,973.6
2017-10-05T04:44:43.432Z,973.5
2017-10-05T04:45:45.898Z,973.3
2017-10-05T04:46:47.958Z,973.4
2017-10-05T04:47:50.083Z,973.4
2017-10-05T04:48:52.259Z,973.4
2017-10-05T04:49:54.374Z,973.4
2017-10-05T04:50:56.839Z,973.4
2017-10-05T04:51:59.010Z,973.3
2017-10-05T04:53:01.086Z,973.3
2017-10-05T04:54:03.226Z,973.2
2017-10-05T04:55:05.612Z,973.3
2017-10-05T04:56:08.055Z,973.2
2017-10-05T04:57:10.139Z,973.3
2017-10-05T04:58:12.255Z,973.3
2017-10-05T04:59:14.340Z,973.2
2017-10-05T05:00:16.487Z,973.2
2017-10-05T05:01:18.984Z,973.2
2017-10-05T05:02:21.019Z,973.3
2017-10-05T05:03:23.080Z,973.2
2017-10-05T05:04:25.134Z,973.2
2017-10-05T05:05:27.254Z,973.1
2017-10-05T05:06:29.695Z,973.2
2017-10-05T05:07:31.856Z,973.2
2017-10-05T05:08:34.024Z,973.1
2017-10-05T05:09:36.198Z,973.2
2017-10-05T05:10:38.331Z,973.1
2017-10-05T05:11:40.722Z,973
2017-10-05T05:12:43.895Z,973.1
2017-10-05T05:13:46.075Z,973
2017-10-05T05:14:48.145Z,973.1
2017-10-05T05:15:50.235Z,973
2017-10-05T05:16:52.668Z,973
2017-10-05T05:17:54.774Z,973
2017-10-05T05:18:56.885Z,972.9
2017-10-05T05:19:58.944Z,973
2017-10-05T05:21:01.082Z,973
2017-10-05T05:22:03.487Z,972.9
2017-10-05T05:23:05.594Z,972.8
2017-10-05T05:24:07.704Z,972.7
2017-10-05T05:25:09.814Z,972.8
2017-10-05T05:26:11.953Z,972.7
2017-10-05T05:27:14.835Z,972.6
2017-10-05T05:28:16.953Z,972.6
2017-10-05T05:29:19.038Z,972.6
2017-10-05T05:30:21.130Z,972.5
2017-10-05T05:31:23.233Z,972.6
2017-10-05T05:32:25.817Z,972.5
2017-10-05T05:33:28.160Z,972.4
2017-10-05T05:34:30.299Z,972.4
2017-10-05T05:35:32.454Z,972.5
2017-10-05T05:36:34.627Z,972.5
2017-10-05T05:37:37.111Z,972.4
2017-10-05T05:38:39.307Z,972.4
2017-10-05T05:39:41.456Z,972.4
2017-10-05T05:40:43.541Z,972.3
2017-10-05T05:41:45.681Z,972.3
2017-10-05T05:42:48.130Z,972.2
2017-10-05T05:43:50.389Z,972.3
2017-10-05T05:44:52.501Z,972.2
2017-10-05T05:45:54.805Z,972.2
2017-10-05T05:46:56.925Z,972.1
2017-10-05T05:47:59.489Z,972.1
2017-10-05T05:49:01.629Z,972.1
2017-10-05T05:50:03.830Z,972
2017-10-05T05:51:05.976Z,972.1
2017-10-05T05:52:08.050Z,971.9
2017-10-05T05:53:10.405Z,972
2017-10-05T05:54:12.585Z,972
2017-10-05T05:55:14.742Z,972
2017-10-05T05:56:16.845Z,972
2017-10-05T05:57:18.972Z,971.9
2017-10-05T05:58:21.839Z,972
2017-10-05T05:59:24.030Z,971.8
2017-10-05T06:00:26.200Z,971.9
2017-10-05T06:01:28.343Z,971.8
2017-10-05T06:02:30.480Z,971.8
2017-10-05T06:03:33.056Z,971.7
2017-10-05T06:04:35.264Z,971.9
2017-10-05T06:05:37.430Z,971.8
2017-10-05T06:06:39.516Z,971.6
2017-10-05T06:07:41.758Z,971.6
2017-10-05T06:08:44.321Z,971.6
2017-10-05T06:09:46.607Z,971.7
2017-10-05T06:10:48.698Z,971.6
2017-10-05T06:11:50.867Z,971.6
2017-10-05T06:12:52.957Z,971.5
2017-10-05T06:13:55.370Z,971.3
2017-10-05T06:14:57.590Z,971.5
2017-10-05T06:15:59.713Z,971.5
2017-10-05T06:17:01.852Z,971.4
2017-10-05T06:18:03.991Z,971.4
2017-10-05T06:19:06.406Z,971.4
2017-10-05T06:20:08.468Z,971.4
2017-10-05T06:21:11.559Z,971.4
2017-10-05T06:22:13.718Z,971.2
2017-10-05T06:23:15.824Z,971.2
2017-10-05T06:24:18.221Z,971.3
2017-10-05T06:25:20.374Z,971.3
2017-10-05T06:26:22.536Z,971.3
2017-10-05T06:27:24.634Z,971.2
2017-10-05T06:28:26.917Z,971.2
2017-10-05T06:29:29.360Z,971.1
2017-10-05T06:30:31.458Z,971.1
2017-10-05T06:31:33.690Z,971.1
2017-10-05T06:32:35.872Z,971.1
2017-10-05T06:33:37.953Z,971.1
2017-10-05T06:34:41.013Z,971.1
2017-10-05T06:35:43.163Z,971
2017-10-05T06:36:45.343Z,971
2017-10-05T06:37:47.408Z,971
2017-10-05T06:38:49.541Z,970.9
2017-10-05T06:39:51.957Z,971.1
2017-10-05T06:40:54.033Z,971.1
2017-10-05T06:41:56.106Z,970.9
2017-10-05T06:42:58.208Z,970.8
2017-10-05T06:44:00.427Z,970.8
2017-10-05T06:45:02.842Z,970.8
2017-10-05T06:46:04.925Z,971
2017-10-05T06:47:07.056Z,970.7
2017-10-05T06:48:09.148Z,970.7
2017-10-05T06:49:11.277Z,970.8
2017-10-05T06:50:14.318Z,970.7
2017-10-05T06:51:16.514Z,970.6
2017-10-05T06:52:18.613Z,970.7
2017-10-05T06:53:20.737Z,970.6
2017-10-05T06:54:22.843Z,970.5
2017-10-05T06:55:25.241Z,970.6
2017-10-05T06:56:27.360Z,970.6
2017-10-05T06:57:29.571Z,970.6
2017-10-05T06:58:31.664Z,970.6
2017-10-05T06:59:33.779Z,970.5
2017-10-05T07:00:36.215Z,970.5
2017-10-05T07:01:38.310Z,970.4
2017-10-05T07:02:40.443Z,970.4
2017-10-05T07:03:42.488Z,970.5
2017-10-05T07:04:44.819Z,970.5
2017-10-05T07:05:47.422Z,970.5
2017-10-05T07:06:49.599Z,970.5
2017-10-05T07:07:51.666Z,970.4
2017-10-05T07:08:53.828Z,970.5
2017-10-05T07:09:55.964Z,970.4
2017-10-05T07:10:58.426Z,970.4
2017-10-05T07:12:00.691Z,970.3
2017-10-05T07:13:02.802Z,970.3
2017-10-05T07:14:04.926Z,970.2
2017-10-05T07:15:07.038Z,970.4
2017-10-05T07:16:09.558Z,970.1
2017-10-05T07:17:11.721Z,970.2
2017-10-05T07:18:13.886Z,970.1
2017-10-05T07:19:16.078Z,970.2
2017-10-05T07:20:18.223Z,970.2
2017-10-05T07:21:20.683Z,970.2
2017-10-05T07:22:22.795Z,970.2
2017-10-05T07:23:24.934Z,970.4
2017-10-05T07:24:27.070Z,970.3
2017-10-05T07:25:29.170Z,970.3
2017-10-05T07:26:31.679Z,970.2
2017-10-05T07:27:33.864Z,970.2
2017-10-05T07:28:35.945Z,970.1
2017-10-05T07:29:38.176Z,970.1
2017-10-05T07:30:40.447Z,970.2
2017-10-05T07:31:42.914Z,970.3
2017-10-05T07:32:45.114Z,970.2
2017-10-05T07:33:47.346Z,970.1
2017-10-05T07:34:49.458Z,970.2
2017-10-05T07:35:51.559Z,970.2
2017-10-05T07:36:53.975Z,970.1
2017-10-05T07:37:56.115Z,970
2017-10-05T07:38:58.189Z,970
2017-10-05T07:40:00.398Z,970.1
2017-10-05T07:41:02.505Z,970.2
2017-10-05T07:42:04.728Z,970.2
2017-10-05T07:43:06.863Z,970.1
2017-10-05T07:44:09.021Z,970.1
2017-10-05T07:45:11.403Z,970.1
2017-10-05T07:46:13.577Z,970
2017-10-05T07:47:15.663Z,970.2
2017-10-05T07:48:17.808Z,970.1
2017-10-05T07:49:19.957Z,970
2017-10-05T07:50:22.022Z,969.9
2017-10-05T07:51:24.109Z,969.9
2017-10-05T07:52:26.177Z,970
2017-10-05T07:53:28.374Z,970
2017-10-05T07:54:30.524Z,970
2017-10-05T07:55:32.699Z,969.9
2017-10-05T07:56:34.864Z,969.9
2017-10-05T07:57:37.341Z,969.9
2017-10-05T07:58:39.509Z,969.9
2017-10-05T07:59:41.621Z,969.8
2017-10-05T08:00:43.810Z,969.8
2017-10-05T08:01:45.912Z,969.7
2017-10-05T08:02:48.362Z,969.8
2017-10-05T08:03:50.437Z,969.8
2017-10-05T08:04:52.782Z,969.8
2017-10-05T08:05:54.890Z,969.7
2017-10-05T08:06:57.000Z,969.7
2017-10-05T08:07:59.488Z,969.7
2017-10-05T08:09:01.667Z,969.6
2017-10-05T08:10:03.795Z,969.7
2017-10-05T08:11:05.929Z,969.6
2017-10-05T08:12:08.105Z,969.6
2017-10-05T08:13:10.619Z,969.6
2017-10-05T08:14:12.867Z,969.6
2017-10-05T08:15:14.974Z,969.6
2017-10-05T08:16:17.123Z,969.6
2017-10-05T08:17:19.207Z,969.6
2017-10-05T08:18:21.802Z,969.6
2017-10-05T08:19:23.902Z,969.4
2017-10-05T08:20:26.312Z,969.5
2017-10-05T08:21:28.421Z,969.5
2017-10-05T08:22:30.581Z,969.4
2017-10-05T08:23:32.980Z,969.5
2017-10-05T08:24:35.109Z,969.4
2017-10-05T08:25:37.215Z,969.5
2017-10-05T08:26:39.321Z,969.4
2017-10-05T08:27:41.486Z,969.4
2017-10-05T08:28:43.884Z,969.3
2017-10-05T08:29:45.993Z,969.3
2017-10-05T08:30:48.192Z,969.4
2017-10-05T08:31:50.332Z,969.4
2017-10-05T08:32:52.775Z,969.4
2017-10-05T08:33:55.201Z,969.3
2017-10-05T08:34:57.409Z,969.3
2017-10-05T08:35:59.509Z,969.2
2017-10-05T08:37:02.052Z,969.2
2017-10-05T08:38:04.184Z,969.3
2017-10-05T08:39:06.741Z,969.2
2017-10-05T08:40:08.898Z,969.2
2017-10-05T08:41:11.091Z,969.1
2017-10-05T08:42:13.229Z,969
2017-10-05T08:43:15.339Z,969.2
2017-10-05T08:44:17.768Z,969.2
2017-10-05T08:45:19.984Z,969
2017-10-05T08:46:22.819Z,968.9
2017-10-05T08:47:24.969Z,969.1
2017-10-05T08:48:27.186Z,969
2017-10-05T08:49:29.651Z,968.9
2017-10-05T08:50:31.777Z,968.9
2017-10-05T08:51:33.970Z,968.7
2017-10-05T08:52:36.090Z,968.9
2017-10-05T08:53:38.248Z,968.9
2017-10-05T08:54:40.743Z,968.9
2017-10-05T08:55:42.850Z,968.9
2017-10-05T08:56:44.971Z,968.9
2017-10-05T08:57:47.073Z,968.9
2017-10-05T08:58:49.227Z,968.8
2017-10-05T08:59:51.737Z,968.8
2017-10-05T09:00:53.870Z,968.7
2017-10-05T09:01:56.007Z,968.6
2017-10-05T09:02:58.135Z,968.7
2017-10-05T09:04:00.418Z,968.7
2017-10-05T09:05:02.852Z,968.7
2017-10-05T09:06:05.064Z,968.5
2017-10-05T09:07:07.140Z,968.6
2017-10-05T09:08:09.302Z,968.7
2017-10-05T09:09:16.638Z,968.5
2017-10-05T09:10:18.797Z,968.7
2017-10-05T09:11:20.906Z,968.5
2017-10-05T09:12:23.029Z,968.6
2017-10-05T09:13:25.840Z,968.5
2017-10-05T09:14:27.897Z,968.7
2017-10-05T09:15:30.050Z,968.6
2017-10-05T09:16:32.158Z,968.7
2017-10-05T09:17:34.274Z,968.6
2017-10-05T09:18:41.391Z,968.6
2017-10-05T09:19:43.465Z,968.7
2017-10-05T09:20:46.095Z,968.5
2017-10-05T09:21:48.335Z,968.6
2017-10-05T09:22:50.724Z,968.6
2017-10-05T09:23:52.838Z,968.6
2017-10-05T09:24:55.054Z,968.6
2017-10-05T09:25:57.433Z,968.6
2017-10-05T09:26:59.553Z,968.6
2017-10-05T09:28:02.039Z,968.8
2017-10-05T09:29:04.166Z,968.5
2017-10-05T09:30:06.250Z,968.6
2017-10-05T09:31:08.709Z,968.6
2017-10-05T09:32:10.832Z,968.6
2017-10-05T09:33:13.070Z,968.7
2017-10-05T09:34:15.285Z,968.7
2017-10-05T09:35:17.408Z,968.6
2017-10-05T09:36:19.980Z,968.7
2017-10-05T09:37:22.139Z,968.5
2017-10-05T09:38:24.300Z,968.5
2017-10-05T09:39:26.489Z,968.5
2017-10-05T09:40:28.637Z,968.6
2017-10-05T09:41:31.041Z,968.4
2017-10-05T09:42:33.113Z,968.4
2017-10-05T09:43:35.269Z,968.4
2017-10-05T09:44:37.337Z,968.5
2017-10-05T09:45:39.447Z,968.5
2017-10-05T09:46:41.815Z,968.5
2017-10-05T09:47:43.911Z,968.4
2017-10-05T09:48:46.003Z,968.4
2017-10-05T09:49:48.160Z,968.5
2017-10-05T09:50:50.325Z,968.5
2017-10-05T09:51:52.795Z,968.4
2017-10-05T09:52:54.985Z,968.3
2017-10-05T09:53:57.067Z,968.3
2017-10-05T09:54:59.213Z,968.4
2017-10-05T09:56:01.417Z,968.4
2017-10-05T09:57:03.660Z,968.3
2017-10-05T09:58:05.862Z,968.4
2017-10-05T09:59:08.002Z,968.3
2017-10-05T10:00:10.226Z,968.3
2017-10-05T10:01:12.357Z,968.3
2017-10-05T10:02:14.723Z,968.2
2017-10-05T10:03:17.004Z,968.1
2017-10-05T10:04:19.151Z,968.2
2017-10-05T10:05:21.333Z,968.3
2017-10-05T10:06:23.499Z,968.2
2017-10-05T10:07:26.008Z,968.2
2017-10-05T10:08:28.114Z,968.2
2017-10-05T10:09:30.304Z,968.2
2017-10-05T10:10:32.440Z,968.3
2017-10-05T10:11:34.517Z,968.3
2017-10-05T10:12:37.009Z,968.1
2017-10-05T10:13:39.118Z,968.2
2017-10-05T10:14:41.236Z,968
2017-10-05T10:15:43.376Z,968
2017-10-05T10:16:45.517Z,968.2
2017-10-05T10:17:48.020Z,968.1
2017-10-05T10:18:50.236Z,968.2
2017-10-05T10:19:52.370Z,968.1
2017-10-05T10:20:54.540Z,968.1
2017-10-05T10:21:56.748Z,968
2017-10-05T10:22:59.164Z,967.9
2017-10-05T10:24:01.287Z,968
2017-10-05T10:25:03.395Z,967.9
2017-10-05T10:26:05.561Z,968
2017-10-05T10:27:07.671Z,967.9
2017-10-05T10:28:10.130Z,967.9
2017-10-05T10:29:12.293Z,967.9
2017-10-05T10:30:14.436Z,967.9
2017-10-05T10:31:16.572Z,967.9
2017-10-05T10:32:18.721Z,967.8
2017-10-05T10:33:21.155Z,967.8
2017-10-05T10:34:23.325Z,967.9
2017-10-05T10:35:25.470Z,967.8
2017-10-05T10:36:27.691Z,967.9
2017-10-05T10:37:29.829Z,967.8
2017-10-05T10:38:32.246Z,967.8
2017-10-05T10:39:34.342Z,967.8
2017-10-05T10:40:36.515Z,967.7
2017-10-05T10:41:38.595Z,967.8
2017-10-05T10:42:40.752Z,967.8
2017-10-05T10:43:43.229Z,967.7
2017-10-05T10:44:45.587Z,967.8
2017-10-05T10:45:47.740Z,967.7
2017-10-05T10:46:49.825Z,967.7
2017-10-05T10:47:52.154Z,967.7
2017-10-05T10:48:54.535Z,967.7
2017-10-05T10:49:56.610Z,967.6
2017-10-05T10:50:58.735Z,967.5
2017-10-05T10:52:00.837Z,967.8
2017-10-05T10:53:02.919Z,967.8
2017-10-05T10:54:05.439Z,967.7
2017-10-05T10:55:07.551Z,967.7
2017-10-05T10:56:09.608Z,967.6
2017-10-05T10:57:11.709Z,967.6
2017-10-05T10:58:13.910Z,967.5
2017-10-05T10:59:16.290Z,967.6
2017-10-05T11:00:18.402Z,967.5
2017-10-05T11:01:20.499Z,967.5
2017-10-05T11:02:22.639Z,967.6
2017-10-05T11:03:24.724Z,967.5
2017-10-05T11:04:27.213Z,967.5
2017-10-05T11:05:29.272Z,967.7
2017-10-05T11:06:31.383Z,967.6
2017-10-05T11:07:33.502Z,967.8
2017-10-05T11:08:35.621Z,967.6
2017-10-05T11:09:38.076Z,967.6
2017-10-05T11:10:40.266Z,967.8
2017-10-05T11:11:42.359Z,967.8
2017-10-05T11:12:44.426Z,967.8
2017-10-05T11:13:46.514Z,967.8
2017-10-05T11:14:48.879Z,967.8
2017-10-05T11:15:50.980Z,967.8
2017-10-05T11:16:53.067Z,967.9
2017-10-05T11:17:55.223Z,967.8
2017-10-05T11:18:57.351Z,967.6
2017-10-05T11:19:59.775Z,967.5
2017-10-05T11:21:01.931Z,968
2017-10-05T11:22:04.060Z,967.9
2017-10-05T11:23:06.120Z,967.7
2017-10-05T11:24:08.259Z,968
2017-10-05T11:25:10.630Z,967.6
2017-10-05T11:26:12.863Z,967.9
2017-10-05T11:27:15.011Z,968.1
2017-10-05T11:28:17.118Z,968.1
2017-10-05T11:29:19.197Z,968.2
2017-10-05T11:30:21.628Z,968.1
2017-10-05T11:31:23.677Z,968.1
2017-10-05T11:32:25.819Z,968.3
2017-10-05T11:33:27.959Z,968.2
2017-10-05T11:34:30.759Z,968.1
2017-10-05T11:35:33.100Z,967.9
2017-10-05T11:36:35.227Z,968.3
2017-10-05T11:37:37.382Z,968
2017-10-05T11:38:39.647Z,968.3
2017-10-05T11:39:41.855Z,968.1
2017-10-05T11:40:44.336Z,968.3
2017-10-05T11:41:46.432Z,968.3
2017-10-05T11:42:48.586Z,968.4
2017-10-05T11:43:50.636Z,968.5
2017-10-05T11:44:53.033Z,968.4
2017-10-05T11:45:55.439Z,968.5
2017-10-05T11:46:57.511Z,968.4
2017-10-05T11:47:59.714Z,968.4
2017-10-05T11:49:01.829Z,968.6
2017-10-05T11:50:03.930Z,968.6
2017-10-05T11:51:06.389Z,968.5
2017-10-05T11:52:08.454Z,968.6
2017-10-05T11:53:10.566Z,968.4
2017-10-05T11:54:12.680Z,968.7
2017-10-05T11:55:14.755Z,968.5
2017-10-05T11:56:17.159Z,968.7
2017-10-05T11:57:19.258Z,968.5
2017-10-05T11:58:21.369Z,968.6
2017-10-05T11:59:23.514Z,968.7
2017-10-05T12:00:25.633Z,968.7
2017-10-05T12:01:28.068Z,968.7
2017-10-05T12:02:30.127Z,968.7
2017-10-05T12:03:32.243Z,968.5
2017-10-05T12:04:34.310Z,968.6
2017-10-05T12:05:36.390Z,968.7
2017-10-05T12:06:38.778Z,968.5
2017-10-05T12:07:40.854Z,968.5
2017-10-05T12:08:42.950Z,968.4
2017-10-05T12:09:45.065Z,968.7
2017-10-05T12:10:47.147Z,968.5
2017-10-05T12:11:49.534Z,968.7
2017-10-05T12:12:51.660Z,968.7
2017-10-05T12:13:53.776Z,968.4
2017-10-05T12:14:55.867Z,968.8
2017-10-05T12:15:58.009Z,968.8
2017-10-05T12:17:00.432Z,968.8
2017-10-05T12:18:02.498Z,968.9
2017-10-05T12:19:04.598Z,968.8
2017-10-05T12:20:06.706Z,968.8
2017-10-05T12:21:08.849Z,969
2017-10-05T12:22:11.280Z,968.9
2017-10-05T12:23:13.331Z,968.8
2017-10-05T12:24:15.481Z,969.1
2017-10-05T12:25:17.654Z,969
2017-10-05T12:26:19.753Z,968.9
2017-10-05T12:27:22.252Z,969.1
2017-10-05T12:28:24.353Z,969.2
2017-10-05T12:29:26.460Z,969
2017-10-05T12:30:28.536Z,969.2
2017-10-05T12:31:30.662Z,969
2017-10-05T12:32:33.093Z,969.3
2017-10-05T12:33:35.234Z,969.4
2017-10-05T12:34:37.358Z,969.4
2017-10-05T12:35:39.466Z,969.4
2017-10-05T12:36:41.661Z,969.5
2017-10-05T12:37:44.059Z,969.4
2017-10-05T12:38:46.550Z,969.4
2017-10-05T12:39:48.642Z,969.5
2017-10-05T12:40:50.697Z,969.5
2017-10-05T12:41:52.814Z,969.6
2017-10-05T12:42:55.308Z,969.7
2017-10-05T12:43:57.416Z,969.8
2017-10-05T12:44:59.576Z,969.8
2017-10-05T12:46:01.744Z,969.8
2017-10-05T12:47:03.828Z,969.9
2017-10-05T12:48:06.255Z,969.8
2017-10-05T12:49:08.317Z,969.9
2017-10-05T12:50:10.445Z,969.9
2017-10-05T12:51:12.493Z,969.9
2017-10-05T12:52:14.594Z,970.1
2017-10-05T12:53:18.303Z,970
2017-10-05T12:54:20.655Z,970.2
2017-10-05T12:55:22.748Z,970.3
2017-10-05T12:56:24.841Z,970.2
2017-10-05T12:57:26.865Z,970.4
2017-10-05T12:58:29.360Z,970.3
2017-10-05T12:59:31.534Z,970.3
2017-10-05T13:00:33.620Z,970.3
2017-10-05T13:01:35.726Z,970.3
2017-10-05T13:02:37.832Z,970.5
2017-10-05T13:03:40.237Z,970.6
2017-10-05T13:04:42.352Z,970.6
2017-10-05T13:05:44.453Z,970.5
2017-10-05T13:06:46.561Z,970.5
2017-10-05T13:07:48.713Z,970.5
2017-10-05T13:08:50.827Z,970.5
2017-10-05T13:09:52.988Z,970.7
2017-10-05T13:10:55.125Z,970.7
2017-10-05T13:11:57.236Z,970.8
2017-10-05T13:12:59.413Z,970.7
2017-10-05T13:14:01.502Z,970.8
2017-10-05T13:15:03.648Z,970.9
2017-10-05T13:16:05.743Z,971
2017-10-05T13:17:07.853Z,970.9
2017-10-05T13:18:10.019Z,971.1
2017-10-05T13:19:12.461Z,971.1
2017-10-05T13:20:14.670Z,971
2017-10-05T13:21:16.783Z,971.1
2017-10-05T13:22:18.856Z,971
2017-10-05T13:23:21.019Z,971.1
2017-10-05T13:24:23.569Z,971.1
2017-10-05T13:25:25.705Z,971.1
2017-10-05T13:26:27.799Z,971.2
2017-10-05T13:27:30.078Z,971.3